sensor_id;sensor_type;location;lat;lon;timestamp;pressure;altitude;pressure_sealevel;temperature;humidity
19447;BME280;9862;49.462;11.054;2023-04-30T00:00:44;98351.03;;;13.74;100.00
19447;BME280;9862;49.462;11.054;2023-04-30T00:03:11;98358.91;;;13.69;100.00
19447;BME280;9862;49.462;11.054;2023-04-30T00:05:37;98362.59;;;13.68;100.00
19447;BME280;9862;49.462;11.054;2023-04-30T00:08:05;98357.72;;;13.65;100.00
19447;BME280;9862;49.462;11.054;2023-04-30T00:10:32;98359.56;;;13.65;100.00
19447;BME280;9862;49.462;11.054;2023-04-30T00:12:58;98361.06;;;13.61;100.00
19447;BME280;9862;49.462;11.054;2023-04-30T00:15:25;98357.13;;;13.63;100.00
19447;BME280;9862;49.462;11.054;2023-04-30T00:17:51;98362.16;;;13.53;100.00
19447;BME280;9862;49.462;11.054;2023-04-30T00:20:18;98365.41;;;13.55;100.00
19447;BME280;9862;49.462;11.054;2023-04-30T00:22:45;98374.94;;;13.69;100.00
19447;BME280;9862;49.462;11.054;2023-04-30T00:25:13;98361.28;;;13.78;100.00
19447;BME280;9862;49.462;11.054;2023-04-30T00:27:40;98365.47;;;13.73;100.00
19447;BME280;9862;49.462;11.054;2023-04-30T00:30:07;98364.25;;;13.69;100.00
19447;BME280;9862;49.462;11.054;2023-04-30T00:32:34;98362.47;;;13.63;100.00
19447;BME280;9862;49.462;11.054;2023-04-30T00:35:01;98380.91;;;13.71;100.00
19447;BME280;9862;49.462;11.054;2023-04-30T00:37:27;98372.38;;;13.81;100.00
19447;BME280;9862;49.462;11.054;2023-04-30T00:39:54;98378.16;;;13.78;100.00
19447;BME280;9862;49.462;11.054;2023-04-30T00:42:22;98367.59;;;13.65;100.00
19447;BME280;9862;49.462;11.054;2023-04-30T00:44:48;98372.41;;;13.56;100.00
19447;BME280;9862;49.462;11.054;2023-04-30T00:47:15;98386.00;;;13.55;100.00
19447;BME280;9862;49.462;11.054;2023-04-30T00:49:41;98376.69;;;13.57;100.00
19447;BME280;9862;49.462;11.054;2023-04-30T00:52:08;98390.31;;;13.56;100.00
19447;BME280;9862;49.462;11.054;2023-04-30T00:54:35;98380.88;;;13.53;100.00
19447;BME280;9862;49.462;11.054;2023-04-30T00:57:04;98386.03;;;13.48;100.00
19447;BME280;9862;49.462;11.054;2023-04-30T00:59:32;98385.97;;;13.30;100.00
19447;BME280;9862;49.462;11.054;2023-04-30T01:01:59;98382.25;;;13.31;100.00
19447;BME280;9862;49.462;11.054;2023-04-30T01:04:26;98386.84;;;13.24;100.00
19447;BME280;9862;49.462;11.054;2023-04-30T01:06:54;98387.59;;;13.31;100.00
19447;BME280;9862;49.462;11.054;2023-04-30T01:09:20;98388.00;;;13.34;100.00
19447;BME280;9862;49.462;11.054;2023-04-30T01:11:55;98398.28;;;13.31;100.00
19447;BME280;9862;49.462;11.054;2023-04-30T01:14:27;98388.38;;;13.38;100.00
19447;BME280;9862;49.462;11.054;2023-04-30T01:17:05;98388.38;;;13.38;100.00
19447;BME280;9862;49.462;11.054;2023-04-30T01:19:37;98395.38;;;13.39;100.00
19447;BME280;9862;49.462;11.054;2023-04-30T01:22:11;98398.25;;;13.37;100.00
19447;BME280;9862;49.462;11.054;2023-04-30T01:24:52;98397.81;;;13.40;100.00
19447;BME280;9862;49.462;11.054;2023-04-30T01:27:31;98394.41;;;13.33;100.00
19447;BME280;9862;49.462;11.054;2023-04-30T01:30:07;98392.56;;;13.27;100.00
19447;BME280;9862;49.462;11.054;2023-04-30T01:32:34;98400.84;;;13.19;100.00
19447;BME280;9862;49.462;11.054;2023-04-30T01:35:00;98393.03;;;13.24;100.00
19447;BME280;9862;49.462;11.054;2023-04-30T01:37:32;98402.06;;;13.16;100.00
19447;BME280;9862;49.462;11.054;2023-04-30T01:40:22;98394.66;;;13.18;100.00
19447;BME280;9862;49.462;11.054;2023-04-30T01:42:54;98407.41;;;13.23;100.00
19447;BME280;9862;49.462;11.054;2023-04-30T01:45:34;98409.06;;;13.24;100.00
19447;BME280;9862;49.462;11.054;2023-04-30T01:48:07;98400.56;;;13.34;100.00
19447;BME280;9862;49.462;11.054;2023-04-30T01:51:03;98403.66;;;13.31;100.00
19447;BME280;9862;49.462;11.054;2023-04-30T01:53:39;98406.53;;;13.29;100.00
19447;BME280;9862;49.462;11.054;2023-04-30T01:56:09;98408.25;;;13.17;100.00
19447;BME280;9862;49.462;11.054;2023-04-30T01:58:37;98410.94;;;13.10;100.00
19447;BME280;9862;49.462;11.054;2023-04-30T02:01:05;98411.94;;;13.16;100.00
19447;BME280;9862;49.462;11.054;2023-04-30T02:03:32;98411.97;;;13.09;100.00
19447;BME280;9862;49.462;11.054;2023-04-30T02:05:59;98424.75;;;13.07;100.00
19447;BME280;9862;49.462;11.054;2023-04-30T02:08:25;98422.25;;;13.12;100.00
19447;BME280;9862;49.462;11.054;2023-04-30T02:10:53;98424.06;;;13.18;100.00
19447;BME280;9862;49.462;11.054;2023-04-30T02:13:19;98421.19;;;13.20;100.00
19447;BME280;9862;49.462;11.054;2023-04-30T02:15:46;98430.44;;;13.24;100.00
19447;BME280;9862;49.462;11.054;2023-04-30T02:18:16;98428.00;;;13.23;100.00
19447;BME280;9862;49.462;11.054;2023-04-30T02:20:44;98433.34;;;13.16;100.00
19447;BME280;9862;49.462;11.054;2023-04-30T02:23:11;98433.34;;;13.16;100.00
19447;BME280;9862;49.462;11.054;2023-04-30T02:25:38;98433.75;;;13.20;100.00
19447;BME280;9862;49.462;11.054;2023-04-30T02:28:06;98435.63;;;13.12;100.00
19447;BME280;9862;49.462;11.054;2023-04-30T02:30:33;98435.44;;;13.07;100.00
19447;BME280;9862;49.462;11.054;2023-04-30T02:33:00;98438.72;;;13.09;100.00
19447;BME280;9862;49.462;11.054;2023-04-30T02:35:29;98434.41;;;13.08;100.00
19447;BME280;9862;49.462;11.054;2023-04-30T02:37:56;98438.09;;;13.07;100.00
19447;BME280;9862;49.462;11.054;2023-04-30T02:40:22;98434.41;;;13.08;100.00
19447;BME280;9862;49.462;11.054;2023-04-30T02:42:49;98435.91;;;12.98;100.00
19447;BME280;9862;49.462;11.054;2023-04-30T02:45:15;98440.44;;;12.97;100.00
19447;BME280;9862;49.462;11.054;2023-04-30T02:47:43;98434.44;;;13.02;100.00
19447;BME280;9862;49.462;11.054;2023-04-30T02:50:10;98444.72;;;12.98;100.00
19447;BME280;9862;49.462;11.054;2023-04-30T02:52:37;98443.72;;;12.93;100.00
19447;BME280;9862;49.462;11.054;2023-04-30T02:55:05;98431.63;;;12.90;100.00
19447;BME280;9862;49.462;11.054;2023-04-30T02:57:32;98439.19;;;12.93;100.00
19447;BME280;9862;49.462;11.054;2023-04-30T02:59:59;98436.69;;;13.05;100.00
19447;BME280;9862;49.462;11.054;2023-04-30T03:02:25;98433.41;;;13.03;100.00
19447;BME280;9862;49.462;11.054;2023-04-30T03:04:52;98432.19;;;12.99;100.00
19447;BME280;9862;49.462;11.054;2023-04-30T03:07:19;98429.31;;;13.00;100.00
19447;BME280;9862;49.462;11.054;2023-04-30T03:09:47;98430.56;;;12.98;100.00
19447;BME280;9862;49.462;11.054;2023-04-30T03:12:13;98441.28;;;12.91;100.00
19447;BME280;9862;49.462;11.054;2023-04-30T03:14:40;98447.03;;;12.88;100.00
19447;BME280;9862;49.462;11.054;2023-04-30T03:17:06;98444.97;;;12.90;100.00
19447;BME280;9862;49.462;11.054;2023-04-30T03:19:33;98438.84;;;12.83;100.00
19447;BME280;9862;49.462;11.054;2023-04-30T03:21:59;98440.31;;;12.79;100.00
19447;BME280;9862;49.462;11.054;2023-04-30T03:24:26;98445.41;;;12.87;100.00
19447;BME280;9862;49.462;11.054;2023-04-30T03:26:54;98437.63;;;12.85;100.00
19447;BME280;9862;49.462;11.054;2023-04-30T03:29:20;98433.69;;;12.88;100.00
19447;BME280;9862;49.462;11.054;2023-04-30T03:31:47;98426.72;;;12.87;100.00
19447;BME280;9862;49.462;11.054;2023-04-30T03:34:13;98433.09;;;12.86;100.00
19447;BME280;9862;49.462;11.054;2023-04-30T03:36:40;98427.75;;;12.86;100.00
19447;BME280;9862;49.462;11.054;2023-04-30T03:39:06;98426.13;;;12.85;100.00
19447;BME280;9862;49.462;11.054;2023-04-30T03:41:34;98426.28;;;12.90;100.00
19447;BME280;9862;49.462;11.054;2023-04-30T03:44:02;98435.16;;;12.84;100.00
19447;BME280;9862;49.462;11.054;2023-04-30T03:46:28;98427.31;;;12.89;100.00
19447;BME280;9862;49.462;11.054;2023-04-30T03:48:55;98430.81;;;12.89;100.00
19447;BME280;9862;49.462;11.054;2023-04-30T03:51:21;98429.16;;;12.88;100.00
19447;BME280;9862;49.462;11.054;2023-04-30T03:53:48;98433.69;;;12.88;100.00
19447;BME280;9862;49.462;11.054;2023-04-30T03:56:15;98427.66;;;12.99;100.00
19447;BME280;9862;49.462;11.054;2023-04-30T03:58:41;98432.16;;;13.05;100.00
19447;BME280;9862;49.462;11.054;2023-04-30T04:01:09;98432.75;;;13.07;100.00
19447;BME280;9862;49.462;11.054;2023-04-30T04:03:36;98428.06;;;13.03;100.00
19447;BME280;9862;49.462;11.054;2023-04-30T04:06:02;98422.50;;;13.04;100.00
19447;BME280;9862;49.462;11.054;2023-04-30T04:08:29;98426.63;;;13.00;100.00
19447;BME280;9862;49.462;11.054;2023-04-30T04:10:56;98424.53;;;13.09;100.00
19447;BME280;9862;49.462;11.054;2023-04-30T04:13:23;98431.50;;;13.10;100.00
19447;BME280;9862;49.462;11.054;2023-04-30T04:15:49;98437.91;;;13.02;100.00
19447;BME280;9862;49.462;11.054;2023-04-30T04:18:17;98440.00;;;13.00;100.00
19447;BME280;9862;49.462;11.054;2023-04-30T04:20:44;98442.53;;;12.88;100.00
19447;BME280;9862;49.462;11.054;2023-04-30T04:23:10;98441.31;;;12.84;100.00
19447;BME280;9862;49.462;11.054;2023-04-30T04:25:37;98442.53;;;12.82;100.00
19447;BME280;9862;49.462;11.054;2023-04-30T04:28:05;98451.56;;;12.87;100.00
19447;BME280;9862;49.462;11.054;2023-04-30T04:30:32;98456.47;;;12.90;100.00
19447;BME280;9862;49.462;11.054;2023-04-30T04:32:59;98444.16;;;12.89;100.00
19447;BME280;9862;49.462;11.054;2023-04-30T04:35:27;98447.44;;;12.92;100.00
19447;BME280;9862;49.462;11.054;2023-04-30T04:37:53;98452.16;;;12.89;100.00
19447;BME280;9862;49.462;11.054;2023-04-30T04:40:20;98448.69;;;12.89;100.00
19447;BME280;9862;49.462;11.054;2023-04-30T04:42:48;98454.22;;;12.94;100.00
19447;BME280;9862;49.462;11.054;2023-04-30T04:45:15;98454.34;;;13.06;100.00
19447;BME280;9862;49.462;11.054;2023-04-30T04:47:42;98453.94;;;13.02;100.00
19447;BME280;9862;49.462;11.054;2023-04-30T04:50:09;98448.22;;;12.99;100.00
19447;BME280;9862;49.462;11.054;2023-04-30T04:52:37;98453.13;;;13.02;100.00
19447;BME280;9862;49.462;11.054;2023-04-30T04:55:04;98458.00;;;13.11;100.00
19447;BME280;9862;49.462;11.054;2023-04-30T04:57:31;98454.50;;;13.17;100.00
19447;BME280;9862;49.462;11.054;2023-04-30T04:59:58;98463.31;;;13.18;100.00
19447;BME280;9862;49.462;11.054;2023-04-30T05:02:24;98462.09;;;13.21;100.00
19447;BME280;9862;49.462;11.054;2023-04-30T05:04:51;98457.97;;;13.25;100.00
19447;BME280;9862;49.462;11.054;2023-04-30T05:07:17;98460.56;;;13.38;100.00
19447;BME280;9862;49.462;11.054;2023-04-30T05:09:45;98459.53;;;13.39;100.00
19447;BME280;9862;49.462;11.054;2023-04-30T05:12:12;98464.06;;;13.38;100.00
19447;BME280;9862;49.462;11.054;2023-04-30T05:14:39;98464.50;;;13.35;100.00
19447;BME280;9862;49.462;11.054;2023-04-30T05:17:05;98459.59;;;13.32;100.00
19447;BME280;9862;49.462;11.054;2023-04-30T05:19:33;98460.53;;;13.44;100.00
19447;BME280;9862;49.462;11.054;2023-04-30T05:21:59;98459.13;;;13.42;100.00
19447;BME280;9862;49.462;11.054;2023-04-30T05:24:27;98464.03;;;13.45;100.00
19447;BME280;9862;49.462;11.054;2023-04-30T05:26:55;98459.88;;;13.49;100.00
19447;BME280;9862;49.462;11.054;2023-04-30T05:29:21;98458.81;;;13.50;100.00
19447;BME280;9862;49.462;11.054;2023-04-30T05:31:48;98461.69;;;13.55;100.00
19447;BME280;9862;49.462;11.054;2023-04-30T05:34:15;98456.06;;;13.63;100.00
19447;BME280;9862;49.462;11.054;2023-04-30T05:36:41;98458.97;;;13.62;100.00
19447;BME280;9862;49.462;11.054;2023-04-30T05:39:08;98466.31;;;13.66;100.00
19447;BME280;9862;49.462;11.054;2023-04-30T05:41:35;98470.22;;;13.70;100.00
19447;BME280;9862;49.462;11.054;2023-04-30T05:44:03;98464.22;;;14.00;100.00
19447;BME280;9862;49.462;11.054;2023-04-30T05:46:30;98470.47;;;13.87;100.00
19447;BME280;9862;49.462;11.054;2023-04-30T05:48:57;98463.34;;;13.81;100.00
19447;BME280;9862;49.462;11.054;2023-04-30T05:51:24;98464.47;;;13.92;100.00
19447;BME280;9862;49.462;11.054;2023-04-30T05:53:52;98464.03;;;13.95;100.00
19447;BME280;9862;49.462;11.054;2023-04-30T05:56:18;98474.28;;;13.98;100.00
19447;BME280;9862;49.462;11.054;2023-04-30T05:58:45;98471.66;;;14.16;100.00
19447;BME280;9862;49.462;11.054;2023-04-30T06:01:13;98466.38;;;14.10;100.00
19447;BME280;9862;49.462;11.054;2023-04-30T06:03:39;98468.44;;;14.08;100.00
19447;BME280;9862;49.462;11.054;2023-04-30T06:06:06;98462.66;;;14.11;100.00
19447;BME280;9862;49.462;11.054;2023-04-30T06:08:33;98470.91;;;14.27;100.00
19447;BME280;9862;49.462;11.054;2023-04-30T06:10:59;98465.78;;;14.26;100.00
19447;BME280;9862;49.462;11.054;2023-04-30T06:13:28;98467.88;;;14.24;100.00
19447;BME280;9862;49.462;11.054;2023-04-30T06:15:54;98475.25;;;14.28;100.00
19447;BME280;9862;49.462;11.054;2023-04-30T06:18:23;98467.44;;;14.27;100.00
19447;BME280;9862;49.462;11.054;2023-04-30T06:20:49;98467.44;;;14.27;100.00
19447;BME280;9862;49.462;11.054;2023-04-30T06:23:16;98469.91;;;14.28;100.00
19447;BME280;9862;49.462;11.054;2023-04-30T06:25:42;98462.00;;;14.33;100.00
19447;BME280;9862;49.462;11.054;2023-04-30T06:28:09;98457.47;;;14.34;100.00
19447;BME280;9862;49.462;11.054;2023-04-30T06:30:36;98455.78;;;14.40;100.00
19447;BME280;9862;49.462;11.054;2023-04-30T06:33:02;98459.22;;;14.47;100.00
19447;BME280;9862;49.462;11.054;2023-04-30T06:35:30;98463.59;;;14.41;100.00
19447;BME280;9862;49.462;11.054;2023-04-30T06:37:57;98455.81;;;14.58;100.00
19447;BME280;9862;49.462;11.054;2023-04-30T06:40:23;98458.94;;;14.55;100.00
19447;BME280;9862;49.462;11.054;2023-04-30T06:42:50;98455.66;;;14.53;100.00
19447;BME280;9862;49.462;11.054;2023-04-30T06:45:18;98454.38;;;14.55;100.00
19447;BME280;9862;49.462;11.054;2023-04-30T06:47:45;98457.34;;;14.66;100.00
19447;BME280;9862;49.462;11.054;2023-04-30T06:50:12;98454.16;;;14.75;100.00
19447;BME280;9862;49.462;11.054;2023-04-30T06:52:41;98451.84;;;14.97;100.00
19447;BME280;9862;49.462;11.054;2023-04-30T06:55:08;98448.06;;;14.86;100.00
19447;BME280;9862;49.462;11.054;2023-04-30T06:57:34;98460.44;;;14.69;100.00
19447;BME280;9862;49.462;11.054;2023-04-30T07:00:02;98463.25;;;14.56;100.00
19447;BME280;9862;49.462;11.054;2023-04-30T07:02:29;98459.84;;;14.67;100.00
19447;BME280;9862;49.462;11.054;2023-04-30T07:04:56;98457.69;;;14.57;100.00
19447;BME280;9862;49.462;11.054;2023-04-30T07:07:23;98457.28;;;14.72;100.00
19447;BME280;9862;49.462;11.054;2023-04-30T07:09:51;98458.84;;;14.62;100.00
19447;BME280;9862;49.462;11.054;2023-04-30T07:12:18;98455.59;;;14.78;100.00
19447;BME280;9862;49.462;11.054;2023-04-30T07:14:45;98445.97;;;14.70;100.00
19447;BME280;9862;49.462;11.054;2023-04-30T07:17:12;98459.06;;;14.78;100.00
19447;BME280;9862;49.462;11.054;2023-04-30T07:19:38;98459.31;;;14.77;100.00
19447;BME280;9862;49.462;11.054;2023-04-30T07:22:05;98461.59;;;14.73;100.00
19447;BME280;9862;49.462;11.054;2023-04-30T07:24:31;98466.22;;;14.66;100.00
19447;BME280;9862;49.462;11.054;2023-04-30T07:26:59;98457.16;;;14.67;100.00
19447;BME280;9862;49.462;11.054;2023-04-30T07:29:28;98470.63;;;14.79;100.00
19447;BME280;9862;49.462;11.054;2023-04-30T07:31:54;98462.63;;;14.91;100.00
19447;BME280;9862;49.462;11.054;2023-04-30T07:34:21;98461.56;;;15.10;100.00
19447;BME280;9862;49.462;11.054;2023-04-30T07:36:48;98463.81;;;15.25;100.00
19447;BME280;9862;49.462;11.054;2023-04-30T07:39:15;98467.19;;;15.20;100.00
19447;BME280;9862;49.462;11.054;2023-04-30T07:41:42;98461.81;;;15.20;100.00
19447;BME280;9862;49.462;11.054;2023-04-30T07:44:10;98453.19;;;15.18;100.00
19447;BME280;9862;49.462;11.054;2023-04-30T07:46:37;98458.44;;;15.25;100.00
19447;BME280;9862;49.462;11.054;2023-04-30T07:49:03;98444.72;;;15.33;100.00
19447;BME280;9862;49.462;11.054;2023-04-30T07:51:30;98454.88;;;15.42;100.00
19447;BME280;9862;49.462;11.054;2023-04-30T07:53:58;98452.34;;;15.48;100.00
19447;BME280;9862;49.462;11.054;2023-04-30T07:56:24;98448.88;;;15.59;100.00
19447;BME280;9862;49.462;11.054;2023-04-30T07:58:51;98450.91;;;15.63;100.00
19447;BME280;9862;49.462;11.054;2023-04-30T08:01:19;98450.94;;;15.75;100.00
19447;BME280;9862;49.462;11.054;2023-04-30T08:03:45;98448.25;;;15.75;100.00
19447;BME280;9862;49.462;11.054;2023-04-30T08:06:12;98442.28;;;15.73;100.00
19447;BME280;9862;49.462;11.054;2023-04-30T08:08:38;98446.59;;;15.74;100.00
19447;BME280;9862;49.462;11.054;2023-04-30T08:11:05;98447.66;;;15.85;100.00
19447;BME280;9862;49.462;11.054;2023-04-30T08:13:32;98442.53;;;15.95;100.00
19447;BME280;9862;49.462;11.054;2023-04-30T08:15:58;98444.06;;;16.02;100.00
19447;BME280;9862;49.462;11.054;2023-04-30T08:18:26;98446.75;;;16.02;100.00
19447;BME280;9862;49.462;11.054;2023-04-30T08:20:53;98447.09;;;15.94;100.00
19447;BME280;9862;49.462;11.054;2023-04-30T08:23:20;98444.41;;;15.94;100.00
19447;BME280;9862;49.462;11.054;2023-04-30T08:25:46;98438.22;;;16.06;100.00
19447;BME280;9862;49.462;11.054;2023-04-30T08:28:13;98441.59;;;16.24;100.00
19447;BME280;9862;49.462;11.054;2023-04-30T08:30:40;98433.88;;;16.28;100.00
19447;BME280;9862;49.462;11.054;2023-04-30T08:33:06;98433.44;;;16.31;100.00
19447;BME280;9862;49.462;11.054;2023-04-30T08:35:34;98433.63;;;16.53;100.00
19447;BME280;9862;49.462;11.054;2023-04-30T08:38:01;98436.03;;;16.66;100.00
19447;BME280;9862;49.462;11.054;2023-04-30T08:40:29;98428.09;;;16.59;98.14
19447;BME280;9862;49.462;11.054;2023-04-30T08:43:01;98431.28;;;16.45;95.33
19447;BME280;9862;49.462;11.054;2023-04-30T08:45:30;98424.19;;;16.27;96.02
19447;BME280;9862;49.462;11.054;2023-04-30T08:47:58;98431.66;;;16.25;96.76
19447;BME280;9862;49.462;11.054;2023-04-30T08:50:25;98431.78;;;16.42;95.88
19447;BME280;9862;49.462;11.054;2023-04-30T08:52:53;98439.09;;;16.46;94.33
19447;BME280;9862;49.462;11.054;2023-04-30T08:55:20;98434.19;;;16.55;96.32
19447;BME280;9862;49.462;11.054;2023-04-30T08:57:47;98439.09;;;16.70;93.61
19447;BME280;9862;49.462;11.054;2023-04-30T09:00:14;98429.19;;;16.47;92.74
19447;BME280;9862;49.462;11.054;2023-04-30T09:02:41;98433.75;;;16.46;94.32
19447;BME280;9862;49.462;11.054;2023-04-30T09:05:10;98434.69;;;16.52;99.68
19447;BME280;9862;49.462;11.054;2023-04-30T09:07:39;98433.72;;;16.70;84.18
19447;BME280;9862;49.462;11.054;2023-04-30T09:10:14;98435.91;;;16.84;80.33
19447;BME280;9862;49.462;11.054;2023-04-30T09:12:41;98431.19;;;16.92;74.08
19447;BME280;9862;49.462;11.054;2023-04-30T09:15:10;98431.53;;;16.95;76.80
19447;BME280;9862;49.462;11.054;2023-04-30T09:17:37;98434.41;;;17.05;73.32
19447;BME280;9862;49.462;11.054;2023-04-30T09:20:08;98431.91;;;17.15;72.73
19447;BME280;9862;49.462;11.054;2023-04-30T09:22:36;98428.91;;;17.12;65.63
19447;BME280;9862;49.462;11.054;2023-04-30T09:25:04;98433.22;;;17.13;66.62
19447;BME280;9862;49.462;11.054;2023-04-30T09:27:32;98429.06;;;17.22;70.58
19447;BME280;9862;49.462;11.054;2023-04-30T09:29:59;98434.22;;;17.24;73.22
19447;BME280;9862;49.462;11.054;2023-04-30T09:32:26;98427.53;;;17.26;74.47
19447;BME280;9862;49.462;11.054;2023-04-30T09:34:54;98424.63;;;17.28;68.57
19447;BME280;9862;49.462;11.054;2023-04-30T09:37:20;98423.13;;;17.37;63.92
19447;BME280;9862;49.462;11.054;2023-04-30T09:39:48;98425.94;;;17.42;61.39
19447;BME280;9862;49.462;11.054;2023-04-30T09:42:15;98426.25;;;17.45;62.11
19447;BME280;9862;49.462;11.054;2023-04-30T09:44:45;98424.47;;;17.51;61.54
19447;BME280;9862;49.462;11.054;2023-04-30T09:47:14;98432.13;;;17.42;61.70
19447;BME280;9862;49.462;11.054;2023-04-30T09:49:42;98420.44;;;17.37;63.14
19447;BME280;9862;49.462;11.054;2023-04-30T09:52:09;98416.47;;;17.56;62.93
19447;BME280;9862;49.462;11.054;2023-04-30T09:54:37;98413.88;;;17.61;63.92
19447;BME280;9862;49.462;11.054;2023-04-30T09:57:03;98416.47;;;17.56;64.13
19447;BME280;9862;49.462;11.054;2023-04-30T09:59:34;98410.13;;;17.62;61.29
19447;BME280;9862;49.462;11.054;2023-04-30T10:02:06;98413.09;;;17.78;60.61
19447;BME280;9862;49.462;11.054;2023-04-30T10:04:34;98410.22;;;17.67;62.86
19447;BME280;9862;49.462;11.054;2023-04-30T10:07:03;98415.78;;;17.78;62.00
19447;BME280;9862;49.462;11.054;2023-04-30T10:09:38;98406.25;;;17.87;58.88
19447;BME280;9862;49.462;11.054;2023-04-30T10:12:09;98402.41;;;17.83;59.61
19447;BME280;9862;49.462;11.054;2023-04-30T10:14:40;98398.72;;;17.89;59.69
19447;BME280;9862;49.462;11.054;2023-04-30T10:17:13;98396.59;;;17.91;58.78
19447;BME280;9862;49.462;11.054;2023-04-30T10:19:45;98397.09;;;17.88;60.16
19447;BME280;9862;49.462;11.054;2023-04-30T10:22:13;98384.09;;;18.01;59.28
19447;BME280;9862;49.462;11.054;2023-04-30T10:24:41;98385.00;;;18.07;61.96
19447;BME280;9862;49.462;11.054;2023-04-30T10:27:09;98383.06;;;18.24;63.12
19447;BME280;9862;49.462;11.054;2023-04-30T10:29:35;98383.31;;;18.23;62.82
19447;BME280;9862;49.462;11.054;2023-04-30T10:32:03;98379.22;;;18.20;62.57
19447;BME280;9862;49.462;11.054;2023-04-30T10:34:37;98377.19;;;18.27;62.95
19447;BME280;9862;49.462;11.054;2023-04-30T10:37:13;98375.81;;;18.25;62.63
19447;BME280;9862;49.462;11.054;2023-04-30T10:39:42;98375.31;;;18.28;64.48
19447;BME280;9862;49.462;11.054;2023-04-30T10:42:09;98381.00;;;18.31;60.51
19447;BME280;9862;49.462;11.054;2023-04-30T10:44:36;98378.63;;;18.35;60.62
19447;BME280;9862;49.462;11.054;2023-04-30T10:47:05;98375.50;;;18.43;62.24
19447;BME280;9862;49.462;11.054;2023-04-30T10:49:34;98380.94;;;18.48;61.17
19447;BME280;9862;49.462;11.054;2023-04-30T10:52:02;98376.81;;;18.41;61.58
19447;BME280;9862;49.462;11.054;2023-04-30T10:54:30;98365.03;;;18.47;63.25
19447;BME280;9862;49.462;11.054;2023-04-30T10:57:10;98370.03;;;18.38;62.39
19447;BME280;9862;49.462;11.054;2023-04-30T10:59:41;98363.06;;;18.42;62.25
19447;BME280;9862;49.462;11.054;2023-04-30T11:02:11;98363.06;;;18.42;60.63
19447;BME280;9862;49.462;11.054;2023-04-30T11:05:08;98368.09;;;18.34;61.49
19447;BME280;9862;49.462;11.054;2023-04-30T11:07:35;98360.88;;;18.39;62.65
19447;BME280;9862;49.462;11.054;2023-04-30T11:10:02;98349.94;;;18.46;63.09
19447;BME280;9862;49.462;11.054;2023-04-30T11:12:29;98351.03;;;18.50;61.85
19447;BME280;9862;49.462;11.054;2023-04-30T11:15:04;98352.47;;;18.57;60.58
19447;BME280;9862;49.462;11.054;2023-04-30T11:17:31;98348.59;;;18.70;61.32
19447;BME280;9862;49.462;11.054;2023-04-30T11:19:59;98333.81;;;18.73;57.49
19447;BME280;9862;49.462;11.054;2023-04-30T11:22:28;98340.03;;;18.73;59.71
19447;BME280;9862;49.462;11.054;2023-04-30T11:25:03;98340.31;;;18.77;57.55
19447;BME280;9862;49.462;11.054;2023-04-30T11:27:32;98345.72;;;18.77;60.06
19447;BME280;9862;49.462;11.054;2023-04-30T11:30:00;98336.81;;;18.76;55.73
19447;BME280;9862;49.462;11.054;2023-04-30T11:32:31;98325.03;;;18.82;54.64
19447;BME280;9862;49.462;11.054;2023-04-30T11:34:59;98329.84;;;18.80;56.78
19447;BME280;9862;49.462;11.054;2023-04-30T11:37:31;98322.31;;;18.82;54.71
19447;BME280;9862;49.462;11.054;2023-04-30T11:40:00;98327.19;;;18.85;53.67
19447;BME280;9862;49.462;11.054;2023-04-30T11:42:28;98322.91;;;18.90;55.29
19447;BME280;9862;49.462;11.054;2023-04-30T11:45:05;98321.34;;;18.94;54.16
19447;BME280;9862;49.462;11.054;2023-04-30T11:47:43;98319.25;;;19.01;53.93
19447;BME280;9862;49.462;11.054;2023-04-30T11:50:10;98311.19;;;19.06;51.33
19447;BME280;9862;49.462;11.054;2023-04-30T11:52:39;98318.84;;;19.14;52.95
19447;BME280;9862;49.462;11.054;2023-04-30T11:55:10;98304.78;;;19.12;52.76
19447;BME280;9862;49.462;11.054;2023-04-30T11:57:39;98311.28;;;19.16;51.11
19447;BME280;9862;49.462;11.054;2023-04-30T12:00:09;98302.94;;;19.17;50.26
19447;BME280;9862;49.462;11.054;2023-04-30T12:02:36;98306.78;;;19.27;48.95
19447;BME280;9862;49.462;11.054;2023-04-30T12:05:04;98303.34;;;19.31;48.32
19447;BME280;9862;49.462;11.054;2023-04-30T12:07:31;98297.34;;;19.24;47.07
19447;BME280;9862;49.462;11.054;2023-04-30T12:09:59;98305.94;;;19.21;48.78
19447;BME280;9862;49.462;11.054;2023-04-30T12:12:26;98304.56;;;19.19;50.09
19447;BME280;9862;49.462;11.054;2023-04-30T12:14:53;98299.41;;;19.17;50.83
19447;BME280;9862;49.462;11.054;2023-04-30T12:17:30;98296.13;;;19.10;46.62
19447;BME280;9862;49.462;11.054;2023-04-30T12:19:56;98294.16;;;19.00;49.48
19447;BME280;9862;49.462;11.054;2023-04-30T12:22:23;98293.91;;;19.02;51.22
19447;BME280;9862;49.462;11.054;2023-04-30T12:24:50;98300.69;;;19.09;49.93
19447;BME280;9862;49.462;11.054;2023-04-30T12:27:18;98306.91;;;19.10;50.29
19447;BME280;9862;49.462;11.054;2023-04-30T12:29:45;98300.47;;;19.11;50.67
19447;BME280;9862;49.462;11.054;2023-04-30T12:32:13;98299.97;;;19.19;49.86
19447;BME280;9862;49.462;11.054;2023-04-30T12:34:40;98290.59;;;19.27;49.51
19447;BME280;9862;49.462;11.054;2023-04-30T12:37:07;98290.91;;;19.30;50.10
19447;BME280;9862;49.462;11.054;2023-04-30T12:39:34;98297.44;;;19.39;49.69
19447;BME280;9862;49.462;11.054;2023-04-30T12:42:01;98285.66;;;19.51;51.21
19447;BME280;9862;49.462;11.054;2023-04-30T12:44:30;98297.38;;;19.61;49.26
19447;BME280;9862;49.462;11.054;2023-04-30T12:46:57;98291.97;;;19.61;45.25
19447;BME280;9862;49.462;11.054;2023-04-30T12:49:26;98284.19;;;19.70;46.25
19447;BME280;9862;49.462;11.054;2023-04-30T12:51:58;98281.50;;;19.75;44.86
19447;BME280;9862;49.462;11.054;2023-04-30T12:54:26;98277.72;;;19.76;46.41
19447;BME280;9862;49.462;11.054;2023-04-30T12:57:00;98282.09;;;19.87;48.33